Time;durP1;ratioP1;P1;durP2;ratioP2;P2;SDS_P1;SDS_P2;PMS_P1;PMS_P2;Temp;Humidity;BMP_temperature;BMP_pressure;BME280_temperature;BME280_humidity;BME280_pressure;Samples;Min_cycle;Max_cycle;Signal;HPM_P1;HPM_P2
2022/06/23 00:02:20;;;;;;;13.15;8.82;;;21.30;99.90;;;;;;5072023;28;20251;-60
2022/06/23 00:04:49;;;;;;;13.13;8.15;;;21.40;99.90;;;;;;5071852;28;20319;-60
2022/06/23 00:07:18;;;;;;;13.52;8.35;;;21.40;99.90;;;;;;5071681;28;20258;-60
2022/06/23 00:09:50;;;;;;;13.55;8.95;;;21.40;99.90;;;;;;5071622;28;20232;-60
2022/06/23 00:12:28;;;;;;;14.27;8.23;;;21.40;99.90;;;;;;5071887;28;20259;-60
2022/06/23 00:15:11;;;;;;;13.32;8.23;;;21.30;99.90;;;;;;5071616;28;20327;-60
2022/06/23 00:17:41;;;;;;;16.02;8.95;;;21.10;99.90;;;;;;5071777;28;20672;-60
2022/06/23 00:20:13;;;;;;;12.32;9.07;;;20.90;99.90;;;;;;5071411;28;20208;-60
2022/06/23 00:22:42;;;;;;;12.80;8.43;;;20.80;99.90;;;;;;5072015;28;20225;-60
2022/06/23 00:25:33;;;;;;;13.25;9.07;;;20.70;99.90;;;;;;5074626;28;20229;-60
2022/06/23 00:28:01;;;;;;;12.73;8.68;;;20.60;99.90;;;;;;5075436;28;20205;-60
2022/06/23 00:30:30;;;;;;;13.18;9.63;;;20.60;99.90;;;;;;5075020;28;20207;-60
2022/06/23 00:33:05;;;;;;;14.63;9.82;;;20.50;99.90;;;;;;5075095;28;20255;-60
2022/06/23 00:35:31;;;;;;;13.13;9.90;;;20.40;99.90;;;;;;5075288;28;20201;-60
2022/06/23 00:37:58;;;;;;;14.27;10.30;;;20.30;99.90;;;;;;5075302;28;20258;-59
2022/06/23 00:40:26;;;;;;;14.68;9.18;;;20.30;99.90;;;;;;5075123;28;20577;-60
2022/06/23 00:42:56;;;;;;;14.00;9.25;;;20.10;99.90;;;;;;5074818;28;20232;-60
2022/06/23 00:45:28;;;;;;;16.52;9.35;;;20.00;99.90;;;;;;5075181;28;20205;-60
2022/06/23 00:47:59;;;;;;;12.20;8.82;;;19.80;99.90;;;;;;5075137;28;20204;-60
2022/06/23 00:50:29;;;;;;;13.45;9.30;;;19.70;99.90;;;;;;5074743;28;20205;-59
2022/06/23 00:53:02;;;;;;;11.55;9.45;;;19.70;99.90;;;;;;5074912;28;20645;-61
2022/06/23 00:55:42;;;;;;;14.85;9.23;;;19.80;99.90;;;;;;5074738;28;20311;-60
2022/06/23 00:58:19;;;;;;;15.38;9.00;;;19.70;99.90;;;;;;5074800;28;20296;-59
2022/06/23 01:00:46;;;;;;;11.80;9.13;;;19.60;99.90;;;;;;5074778;28;20273;-59
2022/06/23 01:03:18;;;;;;;13.75;9.93;;;19.60;99.90;;;;;;5074645;28;20229;-59
2022/06/23 01:05:50;;;;;;;13.90;9.32;;;19.60;99.90;;;;;;5074736;28;20650;-58
2022/06/23 01:08:23;;;;;;;14.77;9.98;;;19.60;99.90;;;;;;5075326;28;20213;-59
2022/06/23 01:11:02;;;;;;;20.98;12.27;;;19.60;99.90;;;;;;5075248;28;20212;-60
2022/06/23 01:13:35;;;;;;;13.77;9.20;;;19.60;99.90;;;;;;5074377;28;20608;-59
2022/06/23 01:16:09;;;;;;;13.90;10.20;;;19.60;99.90;;;;;;5074583;28;20205;-59
2022/06/23 01:18:40;;;;;;;12.13;9.85;;;19.60;99.90;;;;;;5074854;28;20220;-59
2022/06/23 01:21:15;;;;;;;11.95;10.07;;;19.60;99.90;;;;;;5074303;28;20204;-59
2022/06/23 01:24:20;;;;;;;15.73;9.90;;;19.70;99.90;;;;;;5074307;28;20235;-59
2022/06/23 01:27:24;;;;;;;15.95;9.38;;;19.70;99.90;;;;;;5074388;28;20303;-59
2022/06/23 01:29:58;;;;;;;14.98;9.32;;;19.60;99.90;;;;;;4992978;28;20208;-58
2022/06/23 01:32:27;;;;;;;12.50;9.30;;;19.60;99.90;;;;;;5063789;28;20205;-59
2022/06/23 01:35:00;;;;;;;12.93;9.95;;;19.60;99.90;;;;;;5074246;28;20252;-59
2022/06/23 01:37:31;;;;;;;14.60;10.38;;;19.50;99.90;;;;;;5074486;28;20300;-59
2022/06/23 01:40:06;;;;;;;16.20;10.43;;;19.60;99.90;;;;;;5074980;28;20664;-59
2022/06/23 01:42:40;;;;;;;18.98;10.77;;;19.60;99.90;;;;;;5074547;28;20719;-59
2022/06/23 01:45:16;;;;;;;17.17;10.52;;;19.60;99.90;;;;;;5074922;28;20225;-59
2022/06/23 01:47:50;;;;;;;16.25;9.52;;;19.70;99.90;;;;;;5074343;28;20303;-59
2022/06/23 01:50:34;;;;;;;11.65;9.10;;;19.70;99.90;;;;;;5073824;28;20215;-59
2022/06/23 01:53:23;;;;;;;16.15;9.68;;;19.80;99.90;;;;;;5073979;28;20671;-58
2022/06/23 01:56:04;;;;;;;17.30;9.77;;;19.80;99.90;;;;;;5073879;28;20216;-59
2022/06/23 01:58:40;;;;;;;14.60;8.43;;;19.70;99.90;;;;;;5074193;28;20214;-59
2022/06/23 02:01:15;;;;;;;12.95;8.20;;;19.70;99.90;;;;;;5073413;28;20707;-58
2022/06/23 02:03:44;;;;;;;12.73;9.15;;;19.80;99.90;;;;;;5073372;28;20703;-59
2022/06/23 02:06:17;;;;;;;11.35;8.13;;;19.80;99.90;;;;;;5073648;28;20213;-59
2022/06/23 02:08:49;;;;;;;14.13;8.02;;;19.80;99.90;;;;;;5074008;28;20266;-59
2022/06/23 02:11:25;;;;;;;9.63;7.18;;;19.80;99.90;;;;;;5073671;28;20270;-58
2022/06/23 02:13:56;;;;;;;12.60;7.72;;;19.90;99.90;;;;;;5073288;28;20240;-59
2022/06/23 02:16:30;;;;;;;16.50;7.93;;;20.00;99.90;;;;;;5073487;28;20255;-59
2022/06/23 02:19:01;;;;;;;10.48;7.68;;;20.00;99.90;;;;;;5073434;28;20193;-59
2022/06/23 02:21:35;;;;;;;12.50;8.63;;;20.00;99.90;;;;;;5073447;28;20239;-58
2022/06/23 02:24:07;;;;;;;13.15;8.93;;;19.90;99.90;;;;;;5073320;28;20315;-59
2022/06/23 02:26:37;;;;;;;15.55;9.45;;;19.80;99.90;;;;;;5073632;28;20215;-59
2022/06/23 02:29:17;;;;;;;11.55;9.02;;;19.80;99.90;;;;;;5072815;28;20212;-59
2022/06/23 02:31:53;;;;;;;14.90;9.05;;;19.80;99.90;;;;;;5073177;28;20213;-59
2022/06/23 02:34:25;;;;;;;12.20;8.85;;;19.70;99.90;;;;;;5072980;28;20231;-59
2022/06/23 02:37:07;;;;;;;15.02;9.07;;;19.70;99.90;;;;;;5073335;28;20209;-59
2022/06/23 02:39:44;;;;;;;13.68;9.55;;;19.70;99.90;;;;;;5072318;28;20205;-59
2022/06/23 02:42:23;;;;;;;14.43;9.68;;;19.70;99.90;;;;;;5072996;28;20220;-60
2022/06/23 02:45:21;;;;;;;16.55;9.40;;;19.70;99.90;;;;;;5072739;28;20227;-60
2022/06/23 02:48:08;;;;;;;12.43;8.90;;;19.60;99.90;;;;;;5072725;28;20224;-60
2022/06/23 02:50:58;;;;;;;14.15;10.02;;;19.50;99.90;;;;;;5072675;28;20205;-59
2022/06/23 02:53:46;;;;;;;15.02;9.60;;;19.50;99.90;;;;;;5072783;28;20217;-60
2022/06/23 02:56:45;;;;;;;10.95;8.90;;;19.60;99.90;;;;;;5072802;28;20205;-60
2022/06/23 02:59:17;;;;;;;13.63;9.50;;;19.60;99.90;;;;;;5072944;28;20232;-60
2022/06/23 03:01:49;;;;;;;12.63;9.05;;;19.60;99.90;;;;;;5072818;28;20229;-60
2022/06/23 03:04:23;;;;;;;13.05;8.50;;;19.60;99.90;;;;;;5072618;28;20228;-59
2022/06/23 03:06:55;;;;;;;18.15;9.02;;;19.60;99.90;;;;;;5073013;28;20219;-60
2022/06/23 03:09:29;;;;;;;12.32;7.60;;;19.60;99.90;;;;;;5072507;28;20209;-60
2022/06/23 03:12:02;;;;;;;14.35;8.15;;;19.60;99.90;;;;;;5072443;28;20201;-60
2022/06/23 03:14:37;;;;;;;12.13;7.47;;;19.60;99.90;;;;;;5072362;28;20232;-60
2022/06/23 03:17:14;;;;;;;13.35;7.50;;;19.60;99.90;;;;;;5072253;28;20682;-59
2022/06/23 03:19:46;;;;;;;11.07;7.63;;;19.60;99.90;;;;;;5072245;28;20204;-59
2022/06/23 03:22:20;;;;;;;12.65;7.60;;;19.60;99.90;;;;;;5072143;28;20277;-59
2022/06/23 03:24:55;;;;;;;11.15;7.72;;;19.60;99.90;;;;;;5072269;28;20232;-60
2022/06/23 03:27:29;;;;;;;13.48;7.90;;;19.50;99.90;;;;;;5072062;28;20204;-59
2022/06/23 03:30:00;;;;;;;11.27;7.20;;;19.50;99.90;;;;;;5072265;28;20200;-61
2022/06/23 03:32:32;;;;;;;13.63;8.65;;;19.60;99.90;;;;;;5072191;28;20209;-59
2022/06/23 03:35:09;;;;;;;17.30;8.55;;;19.50;99.90;;;;;;5072202;28;20224;-59
2022/06/23 03:37:45;;;;;;;14.98;9.35;;;19.60;99.90;;;;;;5072253;28;20211;-59
2022/06/23 03:43:13;;;;;;;15.43;9.45;;;19.60;99.90;;;;;;5071897;28;20231;-60
2022/06/23 03:45:46;;;;;;;19.90;10.55;;;19.70;99.90;;;;;;5072245;28;20505;-59
2022/06/23 03:48:17;;;;;;;17.02;9.32;;;19.70;99.90;;;;;;5072000;28;20707;-59
2022/06/23 03:50:49;;;;;;;16.17;8.77;;;19.70;99.90;;;;;;5071980;28;20262;-59
2022/06/23 03:53:20;;;;;;;13.93;8.55;;;19.70;99.90;;;;;;5072165;28;20224;-59
2022/06/23 03:55:52;;;;;;;12.82;8.68;;;19.80;99.90;;;;;;5072187;28;20212;-59
2022/06/23 03:58:23;;;;;;;11.95;7.20;;;19.80;99.90;;;;;;5072531;28;20224;-59
2022/06/23 04:00:59;;;;;;;12.73;6.63;;;19.90;99.90;;;;;;5075907;28;20213;-59
2022/06/23 04:03:31;;;;;;;9.88;6.85;;;20.00;99.90;;;;;;5076506;28;20224;-59
2022/06/23 04:06:21;;;;;;;9.50;6.05;;;20.00;99.90;;;;;;5075971;28;20216;-59
2022/06/23 04:09:01;;;;;;;10.25;6.05;;;20.10;99.90;;;;;;5075872;28;20244;-59
2022/06/23 04:11:44;;;;;;;8.43;5.95;;;20.10;99.90;;;;;;5075845;28;20208;-59
2022/06/23 04:14:16;;;;;;;11.10;6.47;;;20.30;99.90;;;;;;5076113;28;20253;-59
2022/06/23 04:16:44;;;;;;;9.93;6.25;;;20.30;99.90;;;;;;5075936;28;20209;-59
2022/06/23 04:19:19;;;;;;;9.38;5.80;;;20.30;99.90;;;;;;5075419;28;20213;-59
2022/06/23 04:21:50;;;;;;;8.02;5.72;;;20.30;99.90;;;;;;5075810;28;20254;-59
2022/06/23 04:24:21;;;;;;;10.88;5.15;;;20.30;99.90;;;;;;5075883;28;20229;-59
2022/06/23 04:26:52;;;;;;;10.40;5.32;;;20.30;99.90;;;;;;5075579;28;20212;-59
2022/06/23 04:29:24;;;;;;;9.57;5.13;;;20.40;99.90;;;;;;5075545;28;20262;-59
2022/06/23 04:31:56;;;;;;;9.13;5.60;;;20.50;99.90;;;;;;5075791;28;20304;-59
2022/06/23 04:34:27;;;;;;;11.07;5.15;;;20.60;99.90;;;;;;5075856;28;20225;-59
2022/06/23 04:36:55;;;;;;;13.68;5.35;;;20.60;99.90;;;;;;5075640;28;20209;-59
2022/06/23 04:39:30;;;;;;;8.75;4.93;;;20.70;99.90;;;;;;5075355;28;20236;-60
2022/06/23 04:42:01;;;;;;;11.43;4.68;;;20.80;99.90;;;;;;5075304;28;20405;-60
2022/06/23 04:44:30;;;;;;;6.60;4.55;;;20.90;99.90;;;;;;5075197;28;20235;-60
2022/06/23 04:47:00;;;;;;;8.93;4.85;;;21.30;99.90;;;;;;5075493;28;20213;-59
2022/06/23 04:49:31;;;;;;;11.23;4.80;;;21.90;99.90;;;;;;5074856;28;20266;-59
2022/06/23 04:52:03;;;;;;;10.35;4.50;;;22.70;99.90;;;;;;5075790;28;20274;-59
2022/06/23 04:54:35;;;;;;;9.00;4.18;;;23.40;99.90;;;;;;5075077;28;20278;-60
2022/06/23 04:57:09;;;;;;;13.35;5.25;;;23.80;99.90;;;;;;5074872;28;20216;-59
2022/06/23 04:59:41;;;;;;;7.70;4.50;;;23.90;99.90;;;;;;5075084;28;20211;-59
2022/06/23 05:02:22;;;;;;;9.18;4.25;;;24.10;99.90;;;;;;5075111;28;20209;-59
2022/06/23 05:04:56;;;;;;;8.98;4.70;;;24.70;99.90;;;;;;5074788;28;20259;-60
2022/06/23 05:07:28;;;;;;;14.35;4.35;;;25.20;99.90;;;;;;5074724;28;20208;-59
2022/06/23 05:09:59;;;;;;;12.00;4.20;;;25.00;99.90;;;;;;5074761;28;20208;-59
2022/06/23 05:12:28;;;;;;;9.40;4.47;;;24.40;99.90;;;;;;5075156;28;20219;-59
2022/06/23 05:15:00;;;;;;;10.00;4.65;;;24.00;99.90;;;;;;5098738;22;20225;-61
2022/06/23 05:17:30;;;;;;;9.75;3.65;;;23.80;99.90;;;;;;5074142;28;20209;-60
2022/06/23 05:20:00;;;;;;;7.82;4.05;;;23.80;99.90;;;;;;5073778;28;20287;-61
2022/06/23 05:22:32;;;;;;;6.40;3.95;;;24.10;99.90;;;;;;5074316;28;20228;-61
2022/06/23 05:25:14;;;;;;;8.75;4.13;;;24.40;99.90;;;;;;5074278;28;20229;-61
2022/06/23 05:27:44;;;;;;;8.52;3.88;;;25.20;99.90;;;;;;5074034;28;20606;-61
2022/06/23 05:30:25;;;;;;;8.95;3.72;;;26.70;99.90;;;;;;5073720;28;20205;-61
2022/06/23 05:32:56;;;;;;;8.20;3.80;;;28.50;99.90;;;;;;5074830;28;20660;-61
2022/06/23 05:35:27;;;;;;;9.55;3.22;;;30.20;99.90;;;;;;5074398;28;20232;-61
2022/06/23 05:38:02;;;;;;;5.95;3.28;;;31.40;99.90;;;;;;5073782;28;20562;-61
2022/06/23 05:40:33;;;;;;;9.45;3.65;;;32.30;99.90;;;;;;5073456;28;20208;-61
2022/06/23 05:43:01;;;;;;;6.97;3.10;;;33.00;99.90;;;;;;5073770;28;20212;-60
2022/06/23 05:45:31;;;;;;;7.68;3.33;;;33.50;99.90;;;;;;5073572;28;20228;-60
2022/06/23 05:48:00;;;;;;;8.70;4.00;;;34.10;99.90;;;;;;5073441;28;20209;-60
2022/06/23 05:50:31;;;;;;;8.68;3.50;;;34.70;99.00;;;;;;5073392;28;20262;-59
2022/06/23 05:53:05;;;;;;;7.53;3.67;;;35.40;96.70;;;;;;5073301;28;20205;-60
2022/06/23 05:55:38;;;;;;;10.82;3.90;;;36.00;94.80;;;;;;5073128;28;20225;-60
2022/06/23 05:58:15;;;;;;;9.35;3.58;;;36.60;92.20;;;;;;5073661;28;20266;-59
2022/06/23 06:00:49;;;;;;;10.60;4.20;;;36.80;91.10;;;;;;5073177;28;20579;-60
2022/06/23 06:03:21;;;;;;;10.43;3.45;;;36.90;89.80;;;;;;5073226;28;20254;-60
2022/06/23 06:05:52;;;;;;;9.07;4.10;;;37.10;88.60;;;;;;5073019;28;20205;-60
2022/06/23 06:08:24;;;;;;;10.77;3.75;;;37.50;84.20;;;;;;5073329;28;20208;-60
2022/06/23 06:10:52;;;;;;;7.78;3.60;;;37.70;83.80;;;;;;5072707;28;20209;-60
2022/06/23 06:13:22;;;;;;;10.07;3.83;;;38.00;82.60;;;;;;5072524;28;20201;-61
2022/06/23 06:15:52;;;;;;;9.30;3.97;;;38.40;79.90;;;;;;5072762;28;20209;-60
2022/06/23 06:18:24;;;;;;;6.60;3.13;;;38.50;78.50;;;;;;5072504;28;20684;-60
2022/06/23 06:20:52;;;;;;;9.90;3.55;;;38.70;77.20;;;;;;5072535;28;20204;-60
2022/06/23 06:23:30;;;;;;;11.00;3.42;;;39.10;74.30;;;;;;5072472;28;20220;-60
2022/06/23 06:25:57;;;;;;;6.32;3.30;;;39.40;73.80;;;;;;5072492;28;20718;-60
2022/06/23 06:28:29;;;;;;;11.10;3.60;;;39.80;72.40;;;;;;5072603;28;20288;-60
2022/06/23 06:31:02;;;;;;;11.05;3.80;;;40.20;69.80;;;;;;5072577;28;20205;-59
2022/06/23 06:33:43;;;;;;;9.68;3.70;;;40.40;68.40;;;;;;5072575;28;20628;-60
2022/06/23 06:36:27;;;;;;;11.20;3.45;;;40.60;67.80;;;;;;5072283;28;20212;-60
2022/06/23 06:39:01;;;;;;;8.60;3.47;;;40.70;66.50;;;;;;5072219;28;20237;-60
2022/06/23 06:41:28;;;;;;;9.55;4.03;;;40.90;65.40;;;;;;5072446;28;20416;-61
2022/06/23 06:43:56;;;;;;;8.73;3.45;;;41.00;64.20;;;;;;5072417;28;20274;-61
2022/06/23 06:46:23;;;;;;;10.38;3.15;;;41.40;62.60;;;;;;5072101;28;20617;-60
2022/06/23 06:48:50;;;;;;;9.73;3.58;;;42.00;61.20;;;;;;5072405;28;20209;-61
2022/06/23 06:51:21;;;;;;;7.10;3.15;;;42.60;59.50;;;;;;5072255;28;20213;-61
2022/06/23 06:53:56;;;;;;;10.25;3.55;;;43.20;58.50;;;;;;5072014;28;20286;-60
2022/06/23 06:56:28;;;;;;;10.25;3.40;;;43.90;56.50;;;;;;5072391;28;20210;-59
2022/06/23 06:59:01;;;;;;;6.95;3.25;;;44.10;54.80;;;;;;5072276;28;20254;-60
2022/06/23 07:01:31;;;;;;;9.73;3.90;;;44.10;54.70;;;;;;5072081;28;20212;-62
2022/06/23 07:03:57;;;;;;;7.65;2.95;;;44.00;54.50;;;;;;5071956;28;20235;-61
2022/06/23 07:06:31;;;;;;;8.18;3.08;;;43.90;54.10;;;;;;5072347;28;20204;-61
2022/06/23 07:09:06;;;;;;;10.02;3.40;;;44.50;53.60;;;;;;5072465;28;20223;-60
2022/06/23 07:11:46;;;;;;;8.10;3.13;;;45.00;52.60;;;;;;5072680;28;20251;-60
2022/06/23 07:14:20;;;;;;;7.63;3.35;;;45.50;50.90;;;;;;5072248;28;20277;-60
2022/06/23 07:16:53;;;;;;;10.48;3.53;;;44.90;51.70;;;;;;5072485;28;20878;-60
2022/06/23 07:19:25;;;;;;;10.85;3.35;;;44.80;52.30;;;;;;5072236;28;20200;-61
2022/06/23 07:21:58;;;;;;;10.23;3.15;;;45.30;50.60;;;;;;5071867;28;20684;-61
2022/06/23 07:24:28;;;;;;;9.25;2.97;;;44.70;50.50;;;;;;5071544;28;20224;-60
2022/06/23 07:27:03;;;;;;;9.93;3.20;;;43.60;52.00;;;;;;5072032;28;20208;-59
2022/06/23 07:29:38;;;;;;;9.15;3.50;;;42.20;53.70;;;;;;5071608;28;20664;-59
2022/06/23 07:32:14;;;;;;;10.82;3.17;;;41.60;54.70;;;;;;5071961;28;20671;-60
2022/06/23 07:34:45;;;;;;;9.27;2.90;;;40.80;55.40;;;;;;5071167;28;20224;-61
2022/06/23 07:37:20;;;;;;;11.80;3.30;;;40.10;56.40;;;;;;5071790;28;20209;-61
2022/06/23 07:39:51;;;;;;;6.82;3.17;;;40.90;55.50;;;;;;5071790;28;20227;-61
2022/06/23 07:42:26;;;;;;;11.82;3.63;;;41.30;54.50;;;;;;5071959;28;20212;-61
2022/06/23 07:44:59;;;;;;;10.68;3.28;;;40.50;55.40;;;;;;5071475;28;20696;-61
2022/06/23 07:47:25;;;;;;;7.70;3.08;;;39.00;57.40;;;;;;5071787;28;20202;-61
2022/06/23 07:49:52;;;;;;;8.73;3.25;;;37.90;59.30;;;;;;5071321;28;20205;-61
2022/06/23 07:52:20;;;;;;;7.78;2.65;;;37.40;60.80;;;;;;5071299;28;20537;-61
2022/06/23 07:54:49;;;;;;;11.30;3.28;;;38.40;59.50;;;;;;5071499;28;20756;-61
2022/06/23 07:57:16;;;;;;;8.93;3.05;;;39.60;56.90;;;;;;5071534;28;20205;-61
2022/06/23 07:59:48;;;;;;;10.50;3.15;;;40.60;55.70;;;;;;5071172;28;20675;-59
2022/06/23 08:02:19;;;;;;;10.50;2.88;;;41.30;54.50;;;;;;5071617;28;20212;-60
2022/06/23 08:04:57;;;;;;;9.80;2.97;;;42.00;53.00;;;;;;5071299;28;20310;-59
2022/06/23 08:07:24;;;;;;;9.27;3.10;;;42.60;52.80;;;;;;5071570;28;20228;-60
2022/06/23 08:09:54;;;;;;;9.80;3.40;;;43.50;50.70;;;;;;5071261;28;20219;-60
2022/06/23 08:18:05;;;;;;;9.13;3.25;;;45.40;47.60;;;;;;5071522;28;20580;-60
2022/06/23 08:20:37;;;;;;;9.07;3.08;;;45.10;47.90;;;;;;5071417;28;20208;-60
2022/06/23 08:23:07;;;;;;;7.57;3.10;;;44.10;48.80;;;;;;5071154;28;20209;-60
2022/06/23 08:25:34;;;;;;;10.15;3.40;;;43.00;50.00;;;;;;5071598;28;20293;-60
2022/06/23 08:28:01;;;;;;;9.45;3.17;;;41.90;51.70;;;;;;5071351;28;20210;-60
2022/06/23 08:30:29;;;;;;;10.10;3.20;;;42.00;51.40;;;;;;5070253;28;20442;-59
2022/06/23 08:32:56;;;;;;;10.27;3.17;;;42.70;50.80;;;;;;5068780;28;20639;-62
2022/06/23 08:35:28;;;;;;;8.02;3.28;;;43.60;49.10;;;;;;5069927;28;20224;-61
2022/06/23 08:37:59;;;;;;;9.02;3.08;;;42.50;50.40;;;;;;5070250;28;20213;-60
2022/06/23 08:40:38;;;;;;;8.05;2.78;;;40.90;52.60;;;;;;5070190;28;20208;-60
2022/06/23 08:43:15;;;;;;;8.68;2.63;;;40.90;53.40;;;;;;5070057;28;20230;-60
2022/06/23 08:45:49;;;;;;;6.55;3.03;;;41.80;51.50;;;;;;5072449;28;20204;-60
2022/06/23 08:48:23;;;;;;;9.27;3.22;;;41.90;51.70;;;;;;5073583;28;20337;-60
2022/06/23 08:50:55;;;;;;;8.18;2.70;;;41.60;51.40;;;;;;5073601;28;20635;-60
2022/06/23 08:53:30;;;;;;;6.80;2.70;;;40.50;52.50;;;;;;5073580;28;20217;-60
2022/06/23 08:56:03;;;;;;;7.20;2.83;;;38.80;54.60;;;;;;5073559;28;20696;-60
2022/06/23 08:58:36;;;;;;;9.73;3.08;;;37.20;56.30;;;;;;5073561;28;20205;-61
2022/06/23 09:01:11;;;;;;;9.23;2.85;;;35.60;60.60;;;;;;5073596;28;20231;-61
2022/06/23 09:03:47;;;;;;;7.30;2.70;;;34.20;63.60;;;;;;5073534;28;20232;-60
2022/06/23 09:06:27;;;;;;;8.10;2.90;;;32.90;66.10;;;;;;5073196;28;20205;-59
2022/06/23 09:09:01;;;;;;;9.70;2.70;;;32.10;69.40;;;;;;5068551;28;20205;-59
2022/06/23 09:11:36;;;;;;;7.07;2.83;;;31.40;71.50;;;;;;5073031;28;20258;-60
2022/06/23 09:14:36;;;;;;;9.95;2.80;;;31.00;72.20;;;;;;5072963;28;20732;-60
2022/06/23 09:17:33;;;;;;;6.90;2.65;;;30.80;73.30;;;;;;5072309;28;20205;-59
2022/06/23 09:20:18;;;;;;;11.77;3.58;;;30.50;75.40;;;;;;5072870;28;20205;-60
2022/06/23 09:23:17;;;;;;;9.90;3.22;;;30.30;77.50;;;;;;5073168;28;20258;-59
2022/06/23 09:25:53;;;;;;;11.45;3.20;;;30.10;78.40;;;;;;5067991;28;20282;-60
2022/06/23 09:28:23;;;;;;;9.15;3.10;;;29.90;78.30;;;;;;5073146;28;20217;-61
2022/06/23 09:31:09;;;;;;;11.00;3.40;;;29.70;79.20;;;;;;5072651;28;20205;-60
2022/06/23 09:33:49;;;;;;;9.85;3.55;;;29.50;80.30;;;;;;5072864;28;20220;-61
2022/06/23 09:36:42;;;;;;;7.97;3.55;;;29.40;81.30;;;;;;5072523;28;20216;-61
2022/06/23 09:39:45;;;;;;;10.52;3.78;;;29.30;83.70;;;;;;5072373;28;20749;-60
2022/06/23 09:42:43;;;;;;;12.13;3.60;;;29.50;85.10;;;;;;5004521;28;20200;-58
2022/06/23 09:45:30;;;;;;;10.38;3.90;;;29.60;84.20;;;;;;5073251;28;20614;-58
2022/06/23 09:48:19;;;;;;;8.07;3.58;;;29.60;85.20;;;;;;5073373;28;20205;-60
2022/06/23 09:51:15;;;;;;;7.95;3.40;;;29.80;85.40;;;;;;5072413;28;20213;-58
2022/06/23 09:54:06;;;;;;;10.68;4.18;;;29.90;84.10;;;;;;5073008;28;20224;-58
2022/06/23 09:56:53;;;;;;;8.07;3.75;;;29.90;85.50;;;;;;5071689;28;20220;-58
2022/06/23 09:59:49;;;;;;;8.43;4.03;;;29.70;85.10;;;;;;5072362;28;20212;-59
2022/06/23 10:02:32;;;;;;;13.48;4.20;;;29.90;84.00;;;;;;5070822;28;20208;-58
2022/06/23 10:05:14;;;;;;;7.05;3.30;;;30.10;83.60;;;;;;5072166;28;20238;-61
2022/06/23 10:08:00;;;;;;;11.48;3.83;;;30.30;83.20;;;;;;5071689;28;20623;-60
2022/06/23 10:10:45;;;;;;;11.98;4.13;;;30.50;80.90;;;;;;5072000;28;20238;-59
2022/06/23 10:13:30;;;;;;;15.13;5.47;;;30.50;82.30;;;;;;5071416;28;20208;-58
2022/06/23 10:16:07;;;;;;;7.20;3.55;;;30.60;82.00;;;;;;5071680;28;20201;-60
2022/06/23 10:19:07;;;;;;;9.50;4.03;;;30.60;81.20;;;;;;5072392;28;20204;-60
2022/06/23 10:21:45;;;;;;;10.65;4.57;;;30.60;80.60;;;;;;5056225;28;20200;-60
2022/06/23 10:24:38;;;;;;;8.18;4.47;;;30.50;82.30;;;;;;5071401;28;20289;-57
2022/06/23 10:27:19;;;;;;;9.95;4.20;;;30.40;84.30;;;;;;5071680;28;20208;-58
2022/06/23 10:30:08;;;;;;;11.45;4.80;;;30.30;85.50;;;;;;5071394;28;20262;-58
2022/06/23 10:32:55;;;;;;;12.15;4.75;;;30.30;82.50;;;;;;5071169;28;20720;-59
2022/06/23 10:35:38;;;;;;;12.82;5.00;;;30.40;83.50;;;;;;5071692;28;20254;-59
2022/06/23 10:38:28;;;;;;;9.48;5.00;;;30.40;82.30;;;;;;5071768;28;20262;-59
2022/06/23 10:41:23;;;;;;;15.45;5.63;;;30.20;82.60;;;;;;5071181;28;20193;-58
2022/06/23 10:43:57;;;;;;;11.88;5.13;;;30.20;83.30;;;;;;5071288;28;20220;-59
2022/06/23 10:46:29;;;;;;;10.70;4.55;;;30.20;83.60;;;;;;5071412;28;20204;-58
2022/06/23 10:49:24;;;;;;;11.75;5.30;;;30.30;83.00;;;;;;5071446;28;20213;-59
2022/06/23 10:52:23;;;;;;;11.23;4.40;;;30.50;82.60;;;;;;5071493;28;20212;-58
2022/06/23 10:55:06;;;;;;;12.68;4.63;;;30.80;81.40;;;;;;5071469;28;20221;-59
2022/06/23 10:57:49;;;;;;;10.98;4.32;;;30.90;80.80;;;;;;5070558;28;20200;-59
2022/06/23 11:00:19;;;;;;;9.82;4.82;;;30.90;80.20;;;;;;5071361;28;20258;-58
2022/06/23 11:03:14;;;;;;;12.38;4.57;;;30.80;81.30;;;;;;5072037;28;20205;-59
2022/06/23 11:06:11;;;;;;;10.23;4.43;;;30.50;80.70;;;;;;5071582;28;20282;-60
2022/06/23 11:08:54;;;;;;;15.50;4.68;;;30.50;80.50;;;;;;5054527;28;20211;-61
2022/06/23 11:11:35;;;;;;;13.05;5.38;;;30.60;79.00;;;;;;5071286;28;20212;-62
2022/06/23 11:14:15;;;;;;;13.57;5.65;;;30.90;81.00;;;;;;5094065;22;20290;-65
2022/06/23 11:16:48;;;;;;;14.18;5.45;;;31.00;81.10;;;;;;5070582;28;20200;-64
2022/06/23 11:19:41;;;;;;;14.52;5.35;;;31.00;80.80;;;;;;5070869;28;20227;-65
2022/06/23 11:22:26;;;;;;;10.73;4.90;;;30.90;81.40;;;;;;5070179;28;20197;-66
2022/06/23 11:25:02;;;;;;;14.18;5.90;;;30.90;81.10;;;;;;5071304;28;20319;-68
2022/06/23 11:27:38;;;;;;;14.30;5.60;;;30.90;81.10;;;;;;5071672;28;20737;-64
2022/06/23 11:30:16;;;;;;;9.85;5.00;;;30.90;81.00;;;;;;5071248;28;20205;-62
2022/06/23 11:32:58;;;;;;;9.57;5.20;;;31.10;80.20;;;;;;5071069;28;20321;-62
2022/06/23 11:36:03;;;;;;;10.45;4.90;;;31.10;79.80;;;;;;5071189;28;20225;-62
2022/06/23 11:38:57;;;;;;;10.15;4.35;;;31.00;78.60;;;;;;5056059;28;20212;-62
2022/06/23 11:41:38;;;;;;;16.08;4.68;;;30.70;79.00;;;;;;5067473;28;20211;-62
2022/06/23 11:44:20;;;;;;;12.35;4.90;;;30.80;79.30;;;;;;5070989;28;20282;-62
2022/06/23 11:46:58;;;;;;;12.27;4.57;;;30.80;78.70;;;;;;5070890;28;20760;-62
2022/06/23 11:49:38;;;;;;;11.57;4.85;;;31.00;78.40;;;;;;5070853;28;20208;-62
2022/06/23 11:52:30;;;;;;;13.27;4.93;;;31.30;76.10;;;;;;5070658;28;20741;-61
2022/06/23 11:55:14;;;;;;;13.20;5.07;;;31.50;75.50;;;;;;5070753;28;20220;-62
2022/06/23 11:58:01;;;;;;;10.88;4.63;;;31.50;74.60;;;;;;5070920;28;20630;-62
2022/06/23 12:00:39;;;;;;;12.82;4.68;;;31.50;74.80;;;;;;5070735;28;20775;-61
2022/06/23 12:03:22;;;;;;;13.75;5.03;;;31.70;73.90;;;;;;5070960;28;20212;-61
2022/06/23 12:05:55;;;;;;;10.27;4.47;;;31.70;72.90;;;;;;5070540;28;20267;-62
2022/06/23 12:08:37;;;;;;;10.77;4.43;;;31.50;73.00;;;;;;5070651;28;20231;-62
2022/06/23 12:11:04;;;;;;;11.35;4.93;;;31.60;73.70;;;;;;5070636;28;20626;-62
2022/06/23 12:13:33;;;;;;;10.90;5.10;;;31.80;73.90;;;;;;5070712;28;20204;-62
2022/06/23 12:16:01;;;;;;;13.63;5.05;;;32.10;73.00;;;;;;5070745;28;20205;-62
2022/06/23 12:18:35;;;;;;;13.35;5.25;;;32.20;73.00;;;;;;5070606;28;20206;-62
2022/06/23 12:21:09;;;;;;;8.77;4.20;;;32.30;72.70;;;;;;5073431;28;20217;-61
2022/06/23 12:23:42;;;;;;;11.48;4.45;;;32.40;70.60;;;;;;5074315;28;20204;-62
2022/06/23 12:26:15;;;;;;;9.50;4.35;;;32.60;68.50;;;;;;5074336;28;20239;-62
2022/06/23 12:28:49;;;;;;;15.02;4.55;;;32.60;69.90;;;;;;5074246;28;20213;-62
2022/06/23 12:31:27;;;;;;;10.25;4.45;;;32.70;68.60;;;;;;5074019;28;20559;-62
2022/06/23 12:34:06;;;;;;;11.10;4.05;;;32.80;70.40;;;;;;5074131;28;20259;-62
2022/06/23 12:36:37;;;;;;;11.70;4.55;;;33.00;69.10;;;;;;5074094;28;20209;-62
2022/06/23 12:39:08;;;;;;;10.80;4.05;;;33.10;68.50;;;;;;5074150;28;20235;-61
2022/06/23 12:41:39;;;;;;;13.82;4.65;;;33.10;69.10;;;;;;5073769;28;20204;-60
2022/06/23 12:44:18;;;;;;;15.05;4.45;;;33.00;68.80;;;;;;5073848;28;20228;-60
2022/06/23 12:46:54;;;;;;;10.73;4.78;;;32.80;69.10;;;;;;5073556;28;20808;-61
2022/06/23 12:49:41;;;;;;;10.98;4.30;;;32.80;69.70;;;;;;5073870;28;20353;-61
2022/06/23 12:52:31;;;;;;;9.55;3.60;;;33.00;69.00;;;;;;5073458;28;20217;-61
2022/06/23 12:55:14;;;;;;;10.23;3.50;;;33.00;67.60;;;;;;5074204;28;20221;-61
2022/06/23 12:58:09;;;;;;;7.32;3.20;;;32.80;66.40;;;;;;5073810;28;20209;-61
2022/06/23 13:00:53;;;;;;;12.32;3.92;;;32.60;65.70;;;;;;5073907;28;20213;-61
2022/06/23 13:03:29;;;;;;;10.90;4.30;;;32.70;66.00;;;;;;5073632;28;20584;-61
2022/06/23 13:06:11;;;;;;;12.30;3.92;;;32.80;66.20;;;;;;5073582;28;20232;-61
2022/06/23 13:08:48;;;;;;;10.30;3.60;;;33.00;66.00;;;;;;5073957;28;20277;-61
2022/06/23 13:11:18;;;;;;;13.40;3.90;;;33.00;65.50;;;;;;5073968;28;20258;-61
2022/06/23 13:13:51;;;;;;;12.60;3.60;;;33.00;65.30;;;;;;5073584;28;20733;-61
2022/06/23 13:16:24;;;;;;;8.38;3.40;;;32.80;65.50;;;;;;5073674;28;20211;-61
2022/06/23 13:18:58;;;;;;;10.82;3.72;;;32.80;65.40;;;;;;5073843;28;20212;-61
2022/06/23 13:21:29;;;;;;;9.10;3.60;;;33.00;63.90;;;;;;5072859;28;20258;-61
2022/06/23 13:24:01;;;;;;;8.75;3.20;;;33.10;64.60;;;;;;5073508;28;20229;-61
2022/06/23 13:26:33;;;;;;;10.32;4.32;;;33.40;63.70;;;;;;5073399;28;20603;-62
2022/06/23 13:29:05;;;;;;;10.52;3.30;;;33.70;63.20;;;;;;5073836;28;20576;-61
2022/06/23 13:31:40;;;;;;;11.00;4.10;;;34.00;62.90;;;;;;5072363;28;20208;-61
2022/06/23 13:34:17;;;;;;;13.13;3.65;;;34.20;63.10;;;;;;5074359;28;20235;-61
2022/06/23 13:36:50;;;;;;;11.20;4.10;;;34.30;63.40;;;;;;5073906;28;20205;-61